sensor_id;sensor_type;location;lat;lon;timestamp;P1;durP1;ratioP1;P2;durP2;ratioP2
65691;SDS011;52411;52.716;6.696;2023-08-07T00:00:57;12.70;;;7.90;;
65691;SDS011;52411;52.716;6.696;2023-08-07T00:03:23;11.88;;;7.70;;
65691;SDS011;52411;52.716;6.696;2023-08-07T00:05:49;13.43;;;7.75;;
65691;SDS011;52411;52.716;6.696;2023-08-07T00:08:16;11.38;;;7.80;;
65691;SDS011;52411;52.716;6.696;2023-08-07T00:10:42;11.27;;;7.40;;
65691;SDS011;52411;52.716;6.696;2023-08-07T00:13:08;12.73;;;7.93;;
65691;SDS011;52411;52.716;6.696;2023-08-07T00:15:33;10.15;;;7.05;;
65691;SDS011;52411;52.716;6.696;2023-08-07T00:17:59;11.25;;;7.22;;
65691;SDS011;52411;52.716;6.696;2023-08-07T00:20:25;9.57;;;6.57;;
65691;SDS011;52411;52.716;6.696;2023-08-07T00:22:51;10.95;;;6.75;;
65691;SDS011;52411;52.716;6.696;2023-08-07T00:25:17;10.85;;;7.30;;
65691;SDS011;52411;52.716;6.696;2023-08-07T00:27:42;11.50;;;7.03;;
65691;SDS011;52411;52.716;6.696;2023-08-07T00:30:08;10.40;;;7.13;;
65691;SDS011;52411;52.716;6.696;2023-08-07T00:32:34;10.25;;;6.82;;
65691;SDS011;52411;52.716;6.696;2023-08-07T00:35:00;10.15;;;6.80;;
65691;SDS011;52411;52.716;6.696;2023-08-07T00:37:25;9.80;;;6.45;;
65691;SDS011;52411;52.716;6.696;2023-08-07T00:39:51;10.07;;;6.75;;
65691;SDS011;52411;52.716;6.696;2023-08-07T00:42:17;9.75;;;6.38;;
65691;SDS011;52411;52.716;6.696;2023-08-07T00:44:42;9.55;;;6.40;;
65691;SDS011;52411;52.716;6.696;2023-08-07T00:47:08;9.43;;;6.00;;
65691;SDS011;52411;52.716;6.696;2023-08-07T00:49:34;9.57;;;5.68;;
65691;SDS011;52411;52.716;6.696;2023-08-07T00:52:00;7.82;;;5.57;;
65691;SDS011;52411;52.716;6.696;2023-08-07T00:54:26;8.98;;;5.72;;
65691;SDS011;52411;52.716;6.696;2023-08-07T00:56:51;12.43;;;5.80;;
65691;SDS011;52411;52.716;6.696;2023-08-07T00:59:17;10.57;;;5.78;;
65691;SDS011;52411;52.716;6.696;2023-08-07T01:01:43;9.02;;;5.63;;
65691;SDS011;52411;52.716;6.696;2023-08-07T01:04:10;9.40;;;5.47;;
65691;SDS011;52411;52.716;6.696;2023-08-07T01:06:35;10.45;;;5.53;;
65691;SDS011;52411;52.716;6.696;2023-08-07T01:09:01;9.25;;;5.57;;
65691;SDS011;52411;52.716;6.696;2023-08-07T01:11:38;10.15;;;5.43;;
65691;SDS011;52411;52.716;6.696;2023-08-07T01:17:10;9.48;;;5.30;;
65691;SDS011;52411;52.716;6.696;2023-08-07T01:19:39;10.45;;;5.53;;
65691;SDS011;52411;52.716;6.696;2023-08-07T01:22:13;12.07;;;5.70;;
65691;SDS011;52411;52.716;6.696;2023-08-07T01:24:44;9.27;;;5.22;;
65691;SDS011;52411;52.716;6.696;2023-08-07T01:29:44;9.35;;;5.18;;
65691;SDS011;52411;52.716;6.696;2023-08-07T01:35:17;9.65;;;5.05;;
65691;SDS011;52411;52.716;6.696;2023-08-07T01:37:46;9.43;;;5.57;;
65691;SDS011;52411;52.716;6.696;2023-08-07T01:40:13;10.93;;;5.25;;
65691;SDS011;52411;52.716;6.696;2023-08-07T01:42:40;9.55;;;5.10;;
65691;SDS011;52411;52.716;6.696;2023-08-07T01:45:06;7.78;;;4.75;;
65691;SDS011;52411;52.716;6.696;2023-08-07T01:47:32;11.88;;;5.28;;
65691;SDS011;52411;52.716;6.696;2023-08-07T01:49:58;10.85;;;5.15;;
65691;SDS011;52411;52.716;6.696;2023-08-07T01:52:23;10.40;;;4.45;;
65691;SDS011;52411;52.716;6.696;2023-08-07T01:54:49;10.48;;;4.40;;
65691;SDS011;52411;52.716;6.696;2023-08-07T01:57:14;11.02;;;4.05;;
65691;SDS011;52411;52.716;6.696;2023-08-07T01:59:40;11.23;;;4.80;;
65691;SDS011;52411;52.716;6.696;2023-08-07T02:02:06;9.25;;;4.05;;
65691;SDS011;52411;52.716;6.696;2023-08-07T02:04:31;6.70;;;3.97;;
65691;SDS011;52411;52.716;6.696;2023-08-07T02:06:57;10.52;;;4.22;;
65691;SDS011;52411;52.716;6.696;2023-08-07T02:09:22;6.25;;;3.53;;
65691;SDS011;52411;52.716;6.696;2023-08-07T02:11:48;7.78;;;3.63;;
65691;SDS011;52411;52.716;6.696;2023-08-07T02:14:14;7.22;;;3.70;;
65691;SDS011;52411;52.716;6.696;2023-08-07T02:16:39;7.05;;;4.22;;
65691;SDS011;52411;52.716;6.696;2023-08-07T02:19:05;10.15;;;3.80;;
65691;SDS011;52411;52.716;6.696;2023-08-07T02:21:31;9.55;;;3.47;;
65691;SDS011;52411;52.716;6.696;2023-08-07T02:23:57;8.93;;;3.60;;
65691;SDS011;52411;52.716;6.696;2023-08-07T02:26:22;7.93;;;3.72;;
65691;SDS011;52411;52.716;6.696;2023-08-07T02:28:48;13.23;;;3.90;;
65691;SDS011;52411;52.716;6.696;2023-08-07T02:31:14;10.63;;;3.60;;
65691;SDS011;52411;52.716;6.696;2023-08-07T02:33:39;13.88;;;4.28;;
65691;SDS011;52411;52.716;6.696;2023-08-07T02:36:06;11.45;;;4.00;;
65691;SDS011;52411;52.716;6.696;2023-08-07T02:38:32;10.18;;;3.83;;
65691;SDS011;52411;52.716;6.696;2023-08-07T02:40:57;9.07;;;3.53;;
65691;SDS011;52411;52.716;6.696;2023-08-07T02:43:23;8.48;;;3.28;;
65691;SDS011;52411;52.716;6.696;2023-08-07T02:45:49;11.60;;;3.50;;
65691;SDS011;52411;52.716;6.696;2023-08-07T02:48:14;13.20;;;3.17;;
65691;SDS011;52411;52.716;6.696;2023-08-07T02:50:40;7.88;;;3.33;;
65691;SDS011;52411;52.716;6.696;2023-08-07T02:53:05;9.98;;;3.20;;
65691;SDS011;52411;52.716;6.696;2023-08-07T02:55:31;14.80;;;3.60;;
65691;SDS011;52411;52.716;6.696;2023-08-07T02:57:57;10.52;;;3.40;;
65691;SDS011;52411;52.716;6.696;2023-08-07T03:00:23;11.68;;;2.85;;
65691;SDS011;52411;52.716;6.696;2023-08-07T03:02:48;8.27;;;3.17;;
65691;SDS011;52411;52.716;6.696;2023-08-07T03:05:14;14.00;;;2.88;;
65691;SDS011;52411;52.716;6.696;2023-08-07T03:07:40;11.75;;;3.05;;
65691;SDS011;52411;52.716;6.696;2023-08-07T03:10:05;14.10;;;2.92;;
65691;SDS011;52411;52.716;6.696;2023-08-07T03:12:32;13.82;;;3.05;;
65691;SDS011;52411;52.716;6.696;2023-08-07T03:14:58;10.60;;;3.60;;
65691;SDS011;52411;52.716;6.696;2023-08-07T03:17:23;9.48;;;2.92;;
65691;SDS011;52411;52.716;6.696;2023-08-07T03:19:49;9.27;;;2.85;;
65691;SDS011;52411;52.716;6.696;2023-08-07T03:22:14;9.50;;;2.83;;
65691;SDS011;52411;52.716;6.696;2023-08-07T03:24:40;11.25;;;2.72;;
65691;SDS011;52411;52.716;6.696;2023-08-07T03:27:06;8.00;;;2.20;;
65691;SDS011;52411;52.716;6.696;2023-08-07T03:29:31;8.63;;;2.70;;
65691;SDS011;52411;52.716;6.696;2023-08-07T03:31:57;10.52;;;2.55;;
65691;SDS011;52411;52.716;6.696;2023-08-07T03:34:22;6.72;;;2.40;;
65691;SDS011;52411;52.716;6.696;2023-08-07T03:36:48;10.23;;;2.28;;
65691;SDS011;52411;52.716;6.696;2023-08-07T03:39:14;10.10;;;2.65;;
65691;SDS011;52411;52.716;6.696;2023-08-07T03:41:39;9.90;;;2.53;;
65691;SDS011;52411;52.716;6.696;2023-08-07T03:44:05;16.75;;;3.00;;
65691;SDS011;52411;52.716;6.696;2023-08-07T03:46:31;11.45;;;3.22;;
65691;SDS011;52411;52.716;6.696;2023-08-07T03:48:57;10.18;;;3.35;;
65691;SDS011;52411;52.716;6.696;2023-08-07T03:51:23;15.88;;;3.05;;
65691;SDS011;52411;52.716;6.696;2023-08-07T03:53:49;13.50;;;3.13;;
65691;SDS011;52411;52.716;6.696;2023-08-07T03:56:14;11.07;;;3.25;;
65691;SDS011;52411;52.716;6.696;2023-08-07T03:58:40;11.80;;;3.10;;
65691;SDS011;52411;52.716;6.696;2023-08-07T04:01:06;12.35;;;3.17;;
65691;SDS011;52411;52.716;6.696;2023-08-07T04:03:32;9.07;;;3.42;;
65691;SDS011;52411;52.716;6.696;2023-08-07T04:05:57;12.30;;;3.22;;
65691;SDS011;52411;52.716;6.696;2023-08-07T04:08:25;14.32;;;3.28;;
65691;SDS011;52411;52.716;6.696;2023-08-07T04:11:00;10.48;;;3.15;;
65691;SDS011;52411;52.716;6.696;2023-08-07T04:13:27;10.73;;;3.00;;
65691;SDS011;52411;52.716;6.696;2023-08-07T04:15:53;10.90;;;2.90;;
65691;SDS011;52411;52.716;6.696;2023-08-07T04:18:19;9.30;;;3.28;;
65691;SDS011;52411;52.716;6.696;2023-08-07T04:20:49;14.38;;;3.15;;
65691;SDS011;52411;52.716;6.696;2023-08-07T04:23:18;12.20;;;3.20;;
65691;SDS011;52411;52.716;6.696;2023-08-07T04:25:45;11.15;;;2.90;;
65691;SDS011;52411;52.716;6.696;2023-08-07T04:28:14;9.45;;;3.15;;
65691;SDS011;52411;52.716;6.696;2023-08-07T04:30:40;12.00;;;3.28;;
65691;SDS011;52411;52.716;6.696;2023-08-07T04:33:06;10.70;;;2.88;;
65691;SDS011;52411;52.716;6.696;2023-08-07T04:35:33;15.20;;;3.15;;
65691;SDS011;52411;52.716;6.696;2023-08-07T04:37:58;10.50;;;3.08;;
65691;SDS011;52411;52.716;6.696;2023-08-07T04:40:24;9.52;;;2.88;;
65691;SDS011;52411;52.716;6.696;2023-08-07T04:42:50;13.07;;;3.38;;
65691;SDS011;52411;52.716;6.696;2023-08-07T04:45:15;11.10;;;3.00;;
65691;SDS011;52411;52.716;6.696;2023-08-07T04:47:41;7.95;;;2.90;;
65691;SDS011;52411;52.716;6.696;2023-08-07T04:50:07;10.13;;;3.40;;
65691;SDS011;52411;52.716;6.696;2023-08-07T04:52:33;9.52;;;2.88;;
65691;SDS011;52411;52.716;6.696;2023-08-07T04:54:59;11.60;;;3.47;;
65691;SDS011;52411;52.716;6.696;2023-08-07T04:57:25;8.07;;;3.38;;
65691;SDS011;52411;52.716;6.696;2023-08-07T04:59:51;9.70;;;3.38;;
65691;SDS011;52411;52.716;6.696;2023-08-07T05:02:17;9.20;;;3.20;;
65691;SDS011;52411;52.716;6.696;2023-08-07T05:04:43;10.50;;;3.60;;
65691;SDS011;52411;52.716;6.696;2023-08-07T05:07:09;7.55;;;3.30;;
65691;SDS011;52411;52.716;6.696;2023-08-07T05:09:35;10.52;;;3.65;;
65691;SDS011;52411;52.716;6.696;2023-08-07T05:12:00;8.60;;;3.50;;
65691;SDS011;52411;52.716;6.696;2023-08-07T05:14:26;8.18;;;3.45;;
65691;SDS011;52411;52.716;6.696;2023-08-07T05:16:52;11.55;;;3.33;;
65691;SDS011;52411;52.716;6.696;2023-08-07T05:19:18;10.25;;;3.53;;
65691;SDS011;52411;52.716;6.696;2023-08-07T05:21:43;9.05;;;3.45;;
65691;SDS011;52411;52.716;6.696;2023-08-07T05:24:09;7.03;;;3.40;;
65691;SDS011;52411;52.716;6.696;2023-08-07T05:26:35;14.93;;;3.50;;
65691;SDS011;52411;52.716;6.696;2023-08-07T05:29:00;11.82;;;4.40;;
65691;SDS011;52411;52.716;6.696;2023-08-07T05:31:26;14.00;;;3.65;;
65691;SDS011;52411;52.716;6.696;2023-08-07T05:33:51;15.10;;;3.78;;
65691;SDS011;52411;52.716;6.696;2023-08-07T05:36:17;11.90;;;3.38;;
65691;SDS011;52411;52.716;6.696;2023-08-07T05:38:43;12.45;;;3.55;;
65691;SDS011;52411;52.716;6.696;2023-08-07T05:41:09;8.60;;;3.55;;
65691;SDS011;52411;52.716;6.696;2023-08-07T05:43:34;8.50;;;3.58;;
65691;SDS011;52411;52.716;6.696;2023-08-07T05:46:00;12.63;;;3.22;;
65691;SDS011;52411;52.716;6.696;2023-08-07T05:48:26;11.50;;;3.13;;
65691;SDS011;52411;52.716;6.696;2023-08-07T05:50:51;14.00;;;3.53;;
65691;SDS011;52411;52.716;6.696;2023-08-07T05:53:18;12.30;;;3.53;;
65691;SDS011;52411;52.716;6.696;2023-08-07T05:55:44;12.15;;;3.50;;
65691;SDS011;52411;52.716;6.696;2023-08-07T05:58:10;11.18;;;3.58;;
65691;SDS011;52411;52.716;6.696;2023-08-07T06:00:35;12.30;;;3.40;;
65691;SDS011;52411;52.716;6.696;2023-08-07T06:03:01;8.68;;;3.20;;
65691;SDS011;52411;52.716;6.696;2023-08-07T06:05:26;11.02;;;2.92;;
65691;SDS011;52411;52.716;6.696;2023-08-07T06:07:52;10.32;;;3.40;;
65691;SDS011;52411;52.716;6.696;2023-08-07T06:12:49;9.73;;;3.03;;
65691;SDS011;52411;52.716;6.696;2023-08-07T06:15:14;9.93;;;3.08;;
65691;SDS011;52411;52.716;6.696;2023-08-07T06:17:40;9.00;;;3.20;;
65691;SDS011;52411;52.716;6.696;2023-08-07T06:20:07;11.85;;;3.50;;
65691;SDS011;52411;52.716;6.696;2023-08-07T06:22:37;10.10;;;3.30;;
65691;SDS011;52411;52.716;6.696;2023-08-07T06:25:03;13.90;;;3.50;;
65691;SDS011;52411;52.716;6.696;2023-08-07T06:27:30;10.88;;;2.85;;
65691;SDS011;52411;52.716;6.696;2023-08-07T06:29:57;11.68;;;3.50;;
65691;SDS011;52411;52.716;6.696;2023-08-07T06:32:22;12.77;;;3.80;;
65691;SDS011;52411;52.716;6.696;2023-08-07T06:34:49;14.63;;;3.97;;
65691;SDS011;52411;52.716;6.696;2023-08-07T06:37:15;13.10;;;4.40;;
65691;SDS011;52411;52.716;6.696;2023-08-07T06:39:41;13.77;;;3.97;;
65691;SDS011;52411;52.716;6.696;2023-08-07T06:42:06;13.50;;;4.63;;
65691;SDS011;52411;52.716;6.696;2023-08-07T06:44:32;18.00;;;4.00;;
65691;SDS011;52411;52.716;6.696;2023-08-07T06:46:58;12.88;;;3.90;;
65691;SDS011;52411;52.716;6.696;2023-08-07T06:49:23;11.15;;;4.00;;
65691;SDS011;52411;52.716;6.696;2023-08-07T06:51:49;12.73;;;3.78;;
65691;SDS011;52411;52.716;6.696;2023-08-07T06:54:15;14.15;;;3.47;;
65691;SDS011;52411;52.716;6.696;2023-08-07T06:56:40;11.48;;;3.45;;
65691;SDS011;52411;52.716;6.696;2023-08-07T06:59:07;11.73;;;2.95;;
65691;SDS011;52411;52.716;6.696;2023-08-07T07:01:33;12.75;;;3.22;;
65691;SDS011;52411;52.716;6.696;2023-08-07T07:03:58;12.82;;;3.45;;
65691;SDS011;52411;52.716;6.696;2023-08-07T07:06:24;11.40;;;3.25;;
65691;SDS011;52411;52.716;6.696;2023-08-07T07:08:51;10.90;;;2.67;;
65691;SDS011;52411;52.716;6.696;2023-08-07T07:11:19;5.82;;;1.88;;
65691;SDS011;52411;52.716;6.696;2023-08-07T07:13:45;9.98;;;3.13;;
65691;SDS011;52411;52.716;6.696;2023-08-07T07:16:14;9.32;;;3.10;;
65691;SDS011;52411;52.716;6.696;2023-08-07T07:18:40;10.23;;;3.22;;
65691;SDS011;52411;52.716;6.696;2023-08-07T07:21:05;11.10;;;3.45;;
65691;SDS011;52411;52.716;6.696;2023-08-07T07:23:31;12.38;;;3.28;;
65691;SDS011;52411;52.716;6.696;2023-08-07T07:25:57;10.98;;;3.17;;
65691;SDS011;52411;52.716;6.696;2023-08-07T07:28:23;10.73;;;3.67;;
65691;SDS011;52411;52.716;6.696;2023-08-07T07:30:49;11.98;;;3.67;;
65691;SDS011;52411;52.716;6.696;2023-08-07T07:33:15;11.75;;;3.70;;
65691;SDS011;52411;52.716;6.696;2023-08-07T07:35:41;17.23;;;4.03;;
65691;SDS011;52411;52.716;6.696;2023-08-07T07:38:07;10.60;;;3.40;;
65691;SDS011;52411;52.716;6.696;2023-08-07T07:40:33;12.05;;;3.80;;
65691;SDS011;52411;52.716;6.696;2023-08-07T07:42:59;12.02;;;4.03;;
65691;SDS011;52411;52.716;6.696;2023-08-07T07:45:25;13.65;;;3.97;;
65691;SDS011;52411;52.716;6.696;2023-08-07T07:47:51;16.13;;;4.47;;
65691;SDS011;52411;52.716;6.696;2023-08-07T07:50:16;14.38;;;3.78;;
65691;SDS011;52411;52.716;6.696;2023-08-07T07:52:42;13.55;;;3.63;;
65691;SDS011;52411;52.716;6.696;2023-08-07T07:55:09;13.23;;;3.50;;
65691;SDS011;52411;52.716;6.696;2023-08-07T07:57:35;8.35;;;2.50;;
65691;SDS011;52411;52.716;6.696;2023-08-07T08:00:01;12.63;;;3.40;;
65691;SDS011;52411;52.716;6.696;2023-08-07T08:02:27;13.63;;;3.45;;
65691;SDS011;52411;52.716;6.696;2023-08-07T08:04:53;9.52;;;3.28;;
65691;SDS011;52411;52.716;6.696;2023-08-07T08:07:18;5.97;;;2.50;;
65691;SDS011;52411;52.716;6.696;2023-08-07T08:09:44;12.82;;;2.80;;
65691;SDS011;52411;52.716;6.696;2023-08-07T08:12:10;6.15;;;2.22;;
65691;SDS011;52411;52.716;6.696;2023-08-07T08:14:36;7.93;;;2.33;;
65691;SDS011;52411;52.716;6.696;2023-08-07T08:17:02;4.90;;;1.95;;
65691;SDS011;52411;52.716;6.696;2023-08-07T08:19:27;8.98;;;2.05;;
65691;SDS011;52411;52.716;6.696;2023-08-07T08:24:18;6.20;;;2.53;;
65691;SDS011;52411;52.716;6.696;2023-08-07T08:26:44;7.70;;;2.88;;
65691;SDS011;52411;52.716;6.696;2023-08-07T08:29:09;5.47;;;2.38;;
65691;SDS011;52411;52.716;6.696;2023-08-07T08:31:35;8.90;;;2.88;;
65691;SDS011;52411;52.716;6.696;2023-08-07T08:34:01;8.25;;;2.42;;
65691;SDS011;52411;52.716;6.696;2023-08-07T08:36:26;5.93;;;2.35;;
65691;SDS011;52411;52.716;6.696;2023-08-07T08:38:52;5.65;;;2.65;;
65691;SDS011;52411;52.716;6.696;2023-08-07T08:41:17;7.53;;;2.60;;
65691;SDS011;52411;52.716;6.696;2023-08-07T08:43:45;9.32;;;2.67;;
65691;SDS011;52411;52.716;6.696;2023-08-07T08:46:14;7.43;;;2.47;;
65691;SDS011;52411;52.716;6.696;2023-08-07T08:51:11;14.35;;;2.90;;
65691;SDS011;52411;52.716;6.696;2023-08-07T08:53:38;6.68;;;2.80;;
65691;SDS011;52411;52.716;6.696;2023-08-07T08:56:04;20.13;;;2.97;;
65691;SDS011;52411;52.716;6.696;2023-08-07T08:58:31;7.25;;;2.08;;
65691;SDS011;52411;52.716;6.696;2023-08-07T09:00:57;12.02;;;2.88;;
65691;SDS011;52411;52.716;6.696;2023-08-07T09:03:24;6.78;;;2.70;;
65691;SDS011;52411;52.716;6.696;2023-08-07T09:05:50;5.07;;;2.15;;
65691;SDS011;52411;52.716;6.696;2023-08-07T09:08:19;7.53;;;2.92;;
65691;SDS011;52411;52.716;6.696;2023-08-07T09:10:47;8.93;;;2.67;;
65691;SDS011;52411;52.716;6.696;2023-08-07T09:13:14;9.93;;;2.88;;
65691;SDS011;52411;52.716;6.696;2023-08-07T09:15:41;9.43;;;3.20;;
65691;SDS011;52411;52.716;6.696;2023-08-07T09:20:38;11.55;;;3.92;;
65691;SDS011;52411;52.716;6.696;2023-08-07T09:23:05;9.38;;;3.30;;
65691;SDS011;52411;52.716;6.696;2023-08-07T09:25:31;14.65;;;4.00;;
65691;SDS011;52411;52.716;6.696;2023-08-07T09:27:58;12.27;;;3.40;;
65691;SDS011;52411;52.716;6.696;2023-08-07T09:32:58;9.32;;;3.50;;
65691;SDS011;52411;52.716;6.696;2023-08-07T09:35:25;12.57;;;3.67;;
65691;SDS011;52411;52.716;6.696;2023-08-07T09:37:51;7.63;;;2.75;;
65691;SDS011;52411;52.716;6.696;2023-08-07T09:40:20;14.98;;;3.97;;
65691;SDS011;52411;52.716;6.696;2023-08-07T09:42:49;10.45;;;3.60;;
65691;SDS011;52411;52.716;6.696;2023-08-07T09:45:26;10.13;;;3.38;;
65691;SDS011;52411;52.716;6.696;2023-08-07T09:48:05;13.30;;;3.95;;
65691;SDS011;52411;52.716;6.696;2023-08-07T09:50:36;15.02;;;3.63;;
65691;SDS011;52411;52.716;6.696;2023-08-07T09:53:01;11.80;;;3.17;;
65691;SDS011;52411;52.716;6.696;2023-08-07T09:55:27;10.05;;;3.00;;
65691;SDS011;52411;52.716;6.696;2023-08-07T09:57:53;9.23;;;3.05;;
65691;SDS011;52411;52.716;6.696;2023-08-07T10:00:19;12.68;;;2.92;;
65691;SDS011;52411;52.716;6.696;2023-08-07T10:02:46;10.50;;;3.42;;
65691;SDS011;52411;52.716;6.696;2023-08-07T10:05:12;8.20;;;2.70;;
65691;SDS011;52411;52.716;6.696;2023-08-07T10:07:38;8.52;;;2.25;;
65691;SDS011;52411;52.716;6.696;2023-08-07T10:10:05;5.88;;;2.40;;
65691;SDS011;52411;52.716;6.696;2023-08-07T10:12:32;5.90;;;2.55;;
65691;SDS011;52411;52.716;6.696;2023-08-07T10:14:58;11.02;;;2.58;;
65691;SDS011;52411;52.716;6.696;2023-08-07T10:17:25;10.70;;;2.78;;
65691;SDS011;52411;52.716;6.696;2023-08-07T10:19:52;10.07;;;2.53;;
65691;SDS011;52411;52.716;6.696;2023-08-07T10:22:22;7.20;;;2.58;;
65691;SDS011;52411;52.716;6.696;2023-08-07T10:24:51;7.57;;;3.03;;
65691;SDS011;52411;52.716;6.696;2023-08-07T10:27:18;9.20;;;2.75;;
65691;SDS011;52411;52.716;6.696;2023-08-07T10:29:47;11.15;;;3.00;;
65691;SDS011;52411;52.716;6.696;2023-08-07T10:32:13;5.95;;;2.30;;
65691;SDS011;52411;52.716;6.696;2023-08-07T10:34:46;7.35;;;3.35;;
65691;SDS011;52411;52.716;6.696;2023-08-07T10:40:03;10.68;;;2.88;;
65691;SDS011;52411;52.716;6.696;2023-08-07T10:42:49;7.20;;;2.65;;
65691;SDS011;52411;52.716;6.696;2023-08-07T10:45:19;6.75;;;2.30;;
65691;SDS011;52411;52.716;6.696;2023-08-07T10:50:49;9.43;;;2.10;;
65691;SDS011;52411;52.716;6.696;2023-08-07T10:53:27;6.07;;;2.45;;
65691;SDS011;52411;52.716;6.696;2023-08-07T10:55:58;5.78;;;2.83;;
65691;SDS011;52411;52.716;6.696;2023-08-07T10:58:32;7.30;;;2.08;;
65691;SDS011;52411;52.716;6.696;2023-08-07T11:03:55;5.82;;;2.10;;
65691;SDS011;52411;52.716;6.696;2023-08-07T11:06:22;6.50;;;2.33;;
65691;SDS011;52411;52.716;6.696;2023-08-07T11:08:51;6.47;;;2.40;;
65691;SDS011;52411;52.716;6.696;2023-08-07T11:11:17;9.45;;;2.10;;
65691;SDS011;52411;52.716;6.696;2023-08-07T11:13:43;6.40;;;2.50;;
65691;SDS011;52411;52.716;6.696;2023-08-07T11:16:08;8.00;;;2.28;;
65691;SDS011;52411;52.716;6.696;2023-08-07T11:18:36;4.78;;;2.05;;
65691;SDS011;52411;52.716;6.696;2023-08-07T11:21:06;5.25;;;2.20;;
65691;SDS011;52411;52.716;6.696;2023-08-07T11:23:38;7.90;;;2.63;;
65691;SDS011;52411;52.716;6.696;2023-08-07T11:26:04;6.50;;;2.40;;
65691;SDS011;52411;52.716;6.696;2023-08-07T11:28:30;5.00;;;1.98;;
65691;SDS011;52411;52.716;6.696;2023-08-07T11:30:56;7.05;;;2.80;;
65691;SDS011;52411;52.716;6.696;2023-08-07T11:33:26;9.73;;;2.72;;
65691;SDS011;52411;52.716;6.696;2023-08-07T11:35:53;9.40;;;2.55;;
65691;SDS011;52411;52.716;6.696;2023-08-07T11:40:56;6.43;;;2.40;;
65691;SDS011;52411;52.716;6.696;2023-08-07T11:43:23;5.07;;;1.95;;
65691;SDS011;52411;52.716;6.696;2023-08-07T11:45:48;9.48;;;2.47;;
65691;SDS011;52411;52.716;6.696;2023-08-07T11:48:15;6.60;;;2.03;;
65691;SDS011;52411;52.716;6.696;2023-08-07T11:50:41;7.25;;;2.25;;
65691;SDS011;52411;52.716;6.696;2023-08-07T11:53:07;5.03;;;1.90;;
65691;SDS011;52411;52.716;6.696;2023-08-07T11:55:33;7.57;;;1.98;;
65691;SDS011;52411;52.716;6.696;2023-08-07T11:57:59;4.15;;;2.08;;
65691;SDS011;52411;52.716;6.696;2023-08-07T12:00:28;6.55;;;2.08;;
65691;SDS011;52411;52.716;6.696;2023-08-07T12:02:54;6.43;;;2.28;;
65691;SDS011;52411;52.716;6.696;2023-08-07T12:05:20;6.05;;;2.00;;
65691;SDS011;52411;52.716;6.696;2023-08-07T12:07:46;7.32;;;2.20;;
65691;SDS011;52411;52.716;6.696;2023-08-07T12:10:12;5.15;;;1.95;;
65691;SDS011;52411;52.716;6.696;2023-08-07T12:12:38;5.00;;;2.40;;
65691;SDS011;52411;52.716;6.696;2023-08-07T12:15:08;4.25;;;2.25;;
65691;SDS011;52411;52.716;6.696;2023-08-07T12:17:35;5.40;;;2.17;;
65691;SDS011;52411;52.716;6.696;2023-08-07T12:20:02;5.50;;;2.28;;
65691;SDS011;52411;52.716;6.696;2023-08-07T12:22:31;5.28;;;2.00;;
65691;SDS011;52411;52.716;6.696;2023-08-07T12:24:56;5.78;;;2.20;;
65691;SDS011;52411;52.716;6.696;2023-08-07T12:27:22;4.80;;;2.13;;
65691;SDS011;52411;52.716;6.696;2023-08-07T12:29:48;6.85;;;2.20;;
65691;SDS011;52411;52.716;6.696;2023-08-07T12:32:13;8.00;;;2.70;;
65691;SDS011;52411;52.716;6.696;2023-08-07T12:34:39;9.15;;;2.60;;
65691;SDS011;52411;52.716;6.696;2023-08-07T12:37:05;4.35;;;2.22;;
65691;SDS011;52411;52.716;6.696;2023-08-07T12:39:31;6.57;;;2.13;;
65691;SDS011;52411;52.716;6.696;2023-08-07T12:41:57;6.63;;;1.83;;
65691;SDS011;52411;52.716;6.696;2023-08-07T12:44:23;4.85;;;2.15;;
65691;SDS011;52411;52.716;6.696;2023-08-07T12:46:49;6.78;;;2.22;;
65691;SDS011;52411;52.716;6.696;2023-08-07T12:49:15;11.55;;;2.20;;
65691;SDS011;52411;52.716;6.696;2023-08-07T12:51:44;7.28;;;2.53;;
65691;SDS011;52411;52.716;6.696;2023-08-07T12:54:09;5.50;;;2.15;;
65691;SDS011;52411;52.716;6.696;2023-08-07T12:56:35;5.28;;;2.25;;
65691;SDS011;52411;52.716;6.696;2023-08-07T12:59:01;4.85;;;1.95;;
65691;SDS011;52411;52.716;6.696;2023-08-07T13:01:26;7.15;;;2.50;;
65691;SDS011;52411;52.716;6.696;2023-08-07T13:03:52;7.20;;;2.38;;
65691;SDS011;52411;52.716;6.696;2023-08-07T13:06:18;8.00;;;2.42;;
65691;SDS011;52411;52.716;6.696;2023-08-07T13:08:44;5.15;;;2.35;;
65691;SDS011;52411;52.716;6.696;2023-08-07T13:11:11;8.98;;;2.40;;
65691;SDS011;52411;52.716;6.696;2023-08-07T13:13:36;8.30;;;2.75;;
65691;SDS011;52411;52.716;6.696;2023-08-07T13:16:03;4.30;;;2.05;;
65691;SDS011;52411;52.716;6.696;2023-08-07T13:18:29;10.68;;;3.13;;
65691;SDS011;52411;52.716;6.696;2023-08-07T13:20:55;8.23;;;3.00;;
65691;SDS011;52411;52.716;6.696;2023-08-07T13:23:21;5.88;;;2.58;;
65691;SDS011;52411;52.716;6.696;2023-08-07T13:25:47;5.18;;;2.38;;
65691;SDS011;52411;52.716;6.696;2023-08-07T13:28:13;6.63;;;2.53;;
65691;SDS011;52411;52.716;6.696;2023-08-07T13:30:39;5.15;;;2.55;;
65691;SDS011;52411;52.716;6.696;2023-08-07T13:33:04;5.28;;;2.65;;
65691;SDS011;52411;52.716;6.696;2023-08-07T13:35:30;7.95;;;2.70;;
65691;SDS011;52411;52.716;6.696;2023-08-07T13:37:57;6.88;;;2.92;;
65691;SDS011;52411;52.716;6.696;2023-08-07T13:40:23;7.45;;;3.13;;
65691;SDS011;52411;52.716;6.696;2023-08-07T13:42:49;5.32;;;3.00;;
65691;SDS011;52411;52.716;6.696;2023-08-07T13:45:14;8.32;;;2.88;;
65691;SDS011;52411;52.716;6.696;2023-08-07T13:47:40;5.38;;;3.00;;
65691;SDS011;52411;52.716;6.696;2023-08-07T13:50:06;7.28;;;2.80;;
65691;SDS011;52411;52.716;6.696;2023-08-07T13:52:33;4.97;;;2.92;;
65691;SDS011;52411;52.716;6.696;2023-08-07T13:54:59;7.85;;;2.85;;
65691;SDS011;52411;52.716;6.696;2023-08-07T13:57:24;6.15;;;2.80;;
65691;SDS011;52411;52.716;6.696;2023-08-07T13:59:50;7.18;;;2.92;;
65691;SDS011;52411;52.716;6.696;2023-08-07T14:02:16;5.97;;;3.00;;
65691;SDS011;52411;52.716;6.696;2023-08-07T14:04:41;8.00;;;3.15;;
65691;SDS011;52411;52.716;6.696;2023-08-07T14:07:10;6.32;;;3.42;;
65691;SDS011;52411;52.716;6.696;2023-08-07T14:09:36;12.43;;;4.10;;
65691;SDS011;52411;52.716;6.696;2023-08-07T14:12:02;10.68;;;3.35;;
65691;SDS011;52411;52.716;6.696;2023-08-07T14:14:28;7.20;;;3.50;;
65691;SDS011;52411;52.716;6.696;2023-08-07T14:16:54;11.10;;;3.80;;
65691;SDS011;52411;52.716;6.696;2023-08-07T14:19:22;9.02;;;3.45;;
65691;SDS011;52411;52.716;6.696;2023-08-07T14:21:48;8.57;;;3.22;;
65691;SDS011;52411;52.716;6.696;2023-08-07T14:24:14;7.75;;;3.38;;
65691;SDS011;52411;52.716;6.696;2023-08-07T14:26:42;8.30;;;3.58;;
65691;SDS011;52411;52.716;6.696;2023-08-07T14:29:07;8.45;;;3.63;;
65691;SDS011;52411;52.716;6.696;2023-08-07T14:31:33;8.82;;;3.63;;
65691;SDS011;52411;52.716;6.696;2023-08-07T14:33:58;8.32;;;4.15;;
65691;SDS011;52411;52.716;6.696;2023-08-07T14:36:24;8.77;;;3.63;;
65691;SDS011;52411;52.716;6.696;2023-08-07T14:38:50;9.25;;;3.95;;
65691;SDS011;52411;52.716;6.696;2023-08-07T14:41:15;7.47;;;3.30;;
65691;SDS011;52411;52.716;6.696;2023-08-07T14:43:42;6.60;;;3.17;;
65691;SDS011;52411;52.716;6.696;2023-08-07T14:46:08;7.13;;;3.05;;
65691;SDS011;52411;52.716;6.696;2023-08-07T14:48:33;7.85;;;3.30;;
65691;SDS011;52411;52.716;6.696;2023-08-07T14:50:59;8.93;;;3.47;;
65691;SDS011;52411;52.716;6.696;2023-08-07T14:53:24;9.80;;;3.22;;
65691;SDS011;52411;52.716;6.696;2023-08-07T14:55:50;8.23;;;3.67;;
65691;SDS011;52411;52.716;6.696;2023-08-07T14:58:16;8.50;;;3.17;;
65691;SDS011;52411;52.716;6.696;2023-08-07T15:00:41;6.60;;;3.20;;
65691;SDS011;52411;52.716;6.696;2023-08-07T15:03:07;7.75;;;3.30;;
65691;SDS011;52411;52.716;6.696;2023-08-07T15:05:33;10.30;;;3.30;;
65691;SDS011;52411;52.716;6.696;2023-08-07T15:07:59;8.23;;;3.55;;